DFW weather

Dallas Fort Worth International Airport
Dallas-Fort Worth, Texas, United States

Public forecast

Using degrees Fahrenheit for public forecast. Weather courtesy of forecast.io.

METAR (pilot weather report)

Retrieved 2018/10/17 02:53 UTC (16 minutes ago):

KDFW 170253Z 34005KT 10SM OVC022 11/08 A3026 RMK AO2 RAB01E32 SLP245 P0000 60000 T01060083 51009

TAF (pilot weather forecast)

Forecast is more than 12 hours old.

Retrieved 2018/10/16 00:42 UTC (1 day ago):

TAF KDFW 162340Z 1700/1806 36008KT P6SM VCSH SCT025 BKN050 OVC110 TEMPO 1700/1702 -RA BKN028 FM170200 36006KT P6SM -RA SCT025 BKN035 TEMPO 1704/1708 5SM -RA BR BKN025 FM170900 01007KT 5SM -RA BR SCT012 BKN020 FM171300 01010KT 6SM -RA BR BKN015 FM172000 02012KT P6SM -RA BKN035